createdAt,value
2023-02-09T00:01:08.105Z,60.83
2023-02-09T00:03:36.072Z,52.40
2023-02-09T00:06:06.441Z,58.37
2023-02-09T00:08:35.366Z,61.97
2023-02-09T00:11:09.844Z,57.00
2023-02-09T00:13:38.133Z,53.10
2023-02-09T00:16:05.488Z,56.67
2023-02-09T00:18:33.820Z,59.17
2023-02-09T00:21:08.417Z,56.67
2023-02-09T00:23:40.851Z,55.13
2023-02-09T00:26:11.619Z,59.27
2023-02-09T00:28:38.968Z,59.83
2023-02-09T00:31:11.927Z,59.33
2023-02-09T00:33:39.161Z,66.57
2023-02-09T00:36:09.050Z,69.90
2023-02-09T00:38:37.027Z,68.93
2023-02-09T00:41:05.251Z,63.20
2023-02-09T00:43:33.489Z,70.43
2023-02-09T00:46:00.602Z,65.03
2023-02-09T00:48:27.840Z,72.03
2023-02-09T00:50:55.151Z,67.70
2023-02-09T00:53:23.580Z,73.03
2023-02-09T00:55:51.185Z,65.67
2023-02-09T00:58:19.315Z,68.67
2023-02-09T01:00:46.646Z,72.30
2023-02-09T01:03:13.822Z,63.10
2023-02-09T01:05:42.922Z,66.60
2023-02-09T01:08:10.158Z,62.27
2023-02-09T01:10:38.663Z,68.00
2023-02-09T01:13:05.903Z,64.57
2023-02-09T01:15:33.070Z,66.63
2023-02-09T01:18:00.375Z,68.43
2023-02-09T01:20:28.185Z,63.40
2023-02-09T01:22:55.284Z,61.47
2023-02-09T01:25:22.312Z,65.87
2023-02-09T01:27:49.346Z,67.13
2023-02-09T01:30:17.333Z,62.87
2023-02-09T01:32:44.588Z,59.93
2023-02-09T01:35:11.745Z,70.23
2023-02-09T01:37:38.921Z,62.23
2023-02-09T01:40:07.273Z,61.40
2023-02-09T01:42:34.527Z,63.20
2023-02-09T01:45:59.702Z,62.13
2023-02-09T01:48:30.717Z,63.23
2023-02-09T01:51:01.191Z,63.03
2023-02-09T01:53:28.588Z,60.00
2023-02-09T01:56:04.412Z,64.10
2023-02-09T01:58:32.314Z,69.23
2023-02-09T02:01:00.257Z,58.93
2023-02-09T02:03:29.416Z,63.70
2023-02-09T02:06:06.572Z,60.30
2023-02-09T02:09:00.658Z,63.40
2023-02-09T02:11:29.780Z,63.57
2023-02-09T02:13:57.884Z,67.97
2023-02-09T02:17:11.368Z,61.63
2023-02-09T02:20:33.009Z,55.90
2023-02-09T02:24:09.329Z,58.97
2023-02-09T02:26:56.107Z,60.53
2023-02-09T02:30:21.475Z,56.70
2023-02-09T02:33:29.729Z,65.87
2023-02-09T02:36:23.411Z,60.20
2023-02-09T02:39:06.858Z,59.07
2023-02-09T02:42:17.979Z,54.90
2023-02-09T02:45:01.349Z,56.57
2023-02-09T02:47:31.311Z,53.87
2023-02-09T02:50:13.569Z,59.17
2023-02-09T02:52:46.200Z,54.80
2023-02-09T02:55:18.259Z,61.90
2023-02-09T02:57:50.940Z,63.10
2023-02-09T03:00:26.041Z,55.37
2023-02-09T03:02:59.298Z,64.17
2023-02-09T03:05:28.019Z,60.10
2023-02-09T03:07:55.020Z,54.27
2023-02-09T03:10:35.017Z,55.27
2023-02-09T03:13:25.866Z,58.53
2023-02-09T03:16:26.472Z,53.07
2023-02-09T03:19:07.805Z,57.33
2023-02-09T03:21:51.948Z,55.73
2023-02-09T03:24:45.181Z,51.87
2023-02-09T03:27:45.162Z,59.57
2023-02-09T03:30:16.244Z,59.27
2023-02-09T03:32:47.082Z,52.57
2023-02-09T03:35:20.560Z,57.40
2023-02-09T03:37:47.557Z,56.67
2023-02-09T03:40:14.546Z,55.60
2023-02-09T03:42:41.753Z,57.27
2023-02-09T03:45:09.834Z,60.53
2023-02-09T03:47:36.841Z,58.50
2023-02-09T03:50:06.811Z,56.90
2023-02-09T03:52:34.485Z,58.87
2023-02-09T03:55:03.247Z,57.83
2023-02-09T03:57:30.331Z,57.53
2023-02-09T03:59:57.394Z,53.57
2023-02-09T04:02:24.959Z,56.40
2023-02-09T04:04:53.611Z,56.90
2023-02-09T04:07:20.765Z,53.03
2023-02-09T04:09:47.834Z,62.13
2023-02-09T04:12:14.850Z,60.10
2023-02-09T04:14:41.875Z,61.03
2023-02-09T04:17:08.873Z,54.60
2023-02-09T04:19:35.905Z,57.50
2023-02-09T04:22:02.975Z,49.97
2023-02-09T04:24:30.150Z,55.50
2023-02-09T04:26:57.174Z,52.17
2023-02-09T04:29:24.212Z,52.97
2023-02-09T04:31:51.559Z,53.00
2023-02-09T04:34:21.109Z,55.93
2023-02-09T04:36:48.218Z,58.40
2023-02-09T04:39:15.303Z,57.40
2023-02-09T04:41:42.404Z,54.13
2023-02-09T04:44:09.545Z,53.43
2023-02-09T04:46:36.536Z,49.67
2023-02-09T04:49:03.565Z,59.80
2023-02-09T04:51:30.575Z,59.47
2023-02-09T04:53:57.581Z,56.90
2023-02-09T04:56:24.602Z,54.77
2023-02-09T04:59:10.169Z,52.63
2023-02-09T05:01:37.211Z,54.70
2023-02-09T05:04:04.528Z,59.83
2023-02-09T05:06:31.523Z,57.00
2023-02-09T05:08:58.525Z,60.37
2023-02-09T05:11:26.903Z,58.13
2023-02-09T05:13:53.943Z,56.17
2023-02-09T05:16:21.022Z,62.93
2023-02-09T05:18:50.316Z,55.73
2023-02-09T05:21:17.324Z,59.17
2023-02-09T05:23:44.379Z,58.37
2023-02-09T05:26:11.436Z,60.53
2023-02-09T05:28:38.438Z,59.10
2023-02-09T05:31:05.753Z,53.73
2023-02-09T05:33:32.795Z,58.63
2023-02-09T05:35:59.913Z,54.67
2023-02-09T05:38:26.963Z,57.30
2023-02-09T05:40:53.977Z,55.77
2023-02-09T05:43:21.020Z,53.93
2023-02-09T05:45:48.073Z,56.63
2023-02-09T05:48:15.168Z,60.60
2023-02-09T05:50:42.216Z,67.70
2023-02-09T05:53:09.899Z,54.87
2023-02-09T05:55:37.384Z,54.53
2023-02-09T05:58:04.671Z,60.67
2023-02-09T06:00:31.897Z,57.77
2023-02-09T06:02:59.042Z,65.83
2023-02-09T06:05:26.645Z,53.73
2023-02-09T06:07:54.256Z,57.83
2023-02-09T06:10:21.865Z,61.33
2023-02-09T06:12:49.017Z,55.53
2023-02-09T06:15:16.474Z,56.53
2023-02-09T06:17:44.048Z,63.97
2023-02-09T06:20:11.885Z,53.73
2023-02-09T06:22:38.992Z,56.87
2023-02-09T06:25:06.556Z,56.30
2023-02-09T06:27:33.680Z,56.03
2023-02-09T06:30:00.769Z,63.37
2023-02-09T06:32:27.812Z,57.60
2023-02-09T06:34:54.919Z,59.97
2023-02-09T06:37:21.990Z,56.60
2023-02-09T06:39:49.050Z,50.30
2023-02-09T06:42:16.047Z,55.57
2023-02-09T06:44:43.092Z,59.63
2023-02-09T06:47:10.185Z,58.37
2023-02-09T06:49:37.209Z,54.43
2023-02-09T06:52:04.545Z,56.73
2023-02-09T06:54:31.665Z,55.83
2023-02-09T06:56:58.681Z,53.60
2023-02-09T06:59:25.765Z,55.17
2023-02-09T07:01:55.003Z,59.37
2023-02-09T07:04:22.548Z,58.00
2023-02-09T07:06:49.559Z,52.33
2023-02-09T07:09:16.622Z,54.73
2023-02-09T07:11:43.924Z,54.97
2023-02-09T07:14:10.944Z,58.83
2023-02-09T07:16:38.060Z,56.47
2023-02-09T07:19:05.124Z,60.13
2023-02-09T07:21:32.166Z,54.87
2023-02-09T07:23:59.338Z,58.07
2023-02-09T07:26:26.539Z,61.67
2023-02-09T07:28:53.619Z,55.47
2023-02-09T07:31:20.741Z,56.27
2023-02-09T07:33:48.078Z,57.47
2023-02-09T07:36:16.878Z,56.30
2023-02-09T07:38:44.616Z,60.17
2023-02-09T07:41:19.267Z,59.00
2023-02-09T07:43:47.075Z,59.03
2023-02-09T07:46:21.065Z,62.77
2023-02-09T07:48:49.145Z,59.13
2023-02-09T07:51:32.880Z,59.10
2023-02-09T07:54:01.336Z,61.80
2023-02-09T07:56:29.024Z,61.37
2023-02-09T07:58:57.294Z,60.70
2023-02-09T08:01:25.106Z,55.07
2023-02-09T08:03:52.600Z,56.43
2023-02-09T08:06:42.470Z,56.03
2023-02-09T08:09:12.342Z,58.57
2023-02-09T08:12:02.626Z,60.30
2023-02-09T08:14:44.391Z,55.60
2023-02-09T08:17:23.189Z,56.07
2023-02-09T08:20:12.277Z,56.80
2023-02-09T08:22:46.147Z,54.38
2023-02-09T08:25:16.634Z,61.97
2023-02-09T08:27:45.467Z,58.60
2023-02-09T08:30:15.479Z,57.25
2023-02-09T08:32:42.719Z,54.30
2023-02-09T08:35:10.648Z,61.92
2023-02-09T08:37:37.889Z,59.28
2023-02-09T08:40:05.457Z,61.30
2023-02-09T08:42:32.446Z,57.35
2023-02-09T08:44:59.439Z,69.95
2023-02-09T08:47:26.548Z,59.13
2023-02-09T08:49:53.563Z,52.53
2023-02-09T08:52:20.594Z,59.22
2023-02-09T08:54:47.698Z,59.75
2023-02-09T08:57:14.750Z,55.45
2023-02-09T08:59:41.826Z,60.25
2023-02-09T09:02:08.837Z,60.17
2023-02-09T09:04:36.240Z,54.95
2023-02-09T09:07:03.334Z,58.50
2023-02-09T09:09:30.326Z,67.18
2023-02-09T09:11:57.359Z,57.75
2023-02-09T09:14:26.560Z,57.10
2023-02-09T09:16:53.684Z,50.53
2023-02-09T09:19:20.729Z,55.50
2023-02-09T09:21:47.789Z,55.40
2023-02-09T09:24:16.193Z,57.45
2023-02-09T09:26:43.297Z,50.47
2023-02-09T09:29:10.755Z,62.38
2023-02-09T09:31:38.048Z,52.83
2023-02-09T09:34:05.910Z,67.93
2023-02-09T09:36:32.900Z,57.47
2023-02-09T09:38:59.944Z,56.97
2023-02-09T09:41:38.959Z,64.95
2023-02-09T09:44:29.615Z,53.90
2023-02-09T09:47:01.296Z,48.65
2023-02-09T09:49:31.808Z,53.78
2023-02-09T09:52:30.175Z,52.88
2023-02-09T09:55:00.466Z,56.95
2023-02-09T09:57:32.204Z,49.08
2023-02-09T10:00:03.347Z,50.05
2023-02-09T10:02:34.277Z,46.92
2023-02-09T10:05:26.837Z,51.53
2023-02-09T10:08:15.942Z,52.53
2023-02-09T10:11:04.237Z,47.75
2023-02-09T10:13:47.992Z,51.50
2023-02-09T10:16:25.514Z,46.75
2023-02-09T10:18:58.428Z,44.38
2023-02-09T10:21:29.669Z,48.75
2023-02-09T10:24:11.758Z,44.22
2023-02-09T10:26:40.632Z,45.25
2023-02-09T10:29:24.820Z,48.42
2023-02-09T10:32:28.997Z,48.92
2023-02-09T10:34:57.934Z,42.25
2023-02-09T10:37:34.318Z,46.42
2023-02-09T10:40:25.586Z,43.17
2023-02-09T10:43:02.232Z,46.25
2023-02-09T10:45:40.747Z,44.38
2023-02-09T10:48:13.626Z,43.97
2023-02-09T10:50:55.163Z,49.78
2023-02-09T10:53:39.582Z,49.10
2023-02-09T10:56:33.632Z,44.90
2023-02-09T10:59:22.667Z,55.22
2023-02-09T11:02:02.225Z,43.00
2023-02-09T11:04:41.153Z,52.90
2023-02-09T11:07:16.718Z,48.53
2023-02-09T11:09:49.212Z,51.08
2023-02-09T11:12:16.228Z,48.40
2023-02-09T11:14:43.815Z,46.25
2023-02-09T11:17:36.519Z,44.33
2023-02-09T11:20:36.288Z,42.05
2023-02-09T11:23:30.644Z,38.35
2023-02-09T11:26:22.716Z,38.20
2023-02-09T11:29:09.653Z,42.75
2023-02-09T11:31:48.473Z,37.85
2023-02-09T11:35:22.657Z,48.28
2023-02-09T11:37:55.249Z,36.13
2023-02-09T11:40:41.473Z,39.72
2023-02-09T11:43:11.185Z,40.10
2023-02-09T11:46:03.724Z,38.40
2023-02-09T11:48:56.787Z,36.10
2023-02-09T11:51:26.767Z,34.03
2023-02-09T11:54:22.883Z,35.90
2023-02-09T11:56:59.962Z,29.42
2023-02-09T11:59:39.324Z,31.10
2023-02-09T12:02:40.808Z,29.58
2023-02-09T12:05:12.442Z,32.10
2023-02-09T12:08:30.784Z,41.53
2023-02-09T12:11:24.618Z,36.25
2023-02-09T12:14:21.074Z,36.78
2023-02-09T12:16:58.242Z,30.73
2023-02-09T12:19:39.955Z,35.05
2023-02-09T12:22:35.139Z,34.13
2023-02-09T12:25:20.264Z,31.15
2023-02-09T12:28:17.053Z,32.58
2023-02-09T12:30:44.411Z,39.55
2023-02-09T12:33:27.420Z,35.58
2023-02-09T12:36:01.732Z,34.30
2023-02-09T12:38:55.984Z,32.47
2023-02-09T12:41:50.996Z,31.95
2023-02-09T12:44:18.530Z,35.63
2023-02-09T12:46:45.600Z,31.52
2023-02-09T12:49:12.543Z,38.22
2023-02-09T12:51:55.047Z,36.42
2023-02-09T12:54:38.411Z,35.50
2023-02-09T12:57:17.876Z,36.05
2023-02-09T12:59:50.989Z,37.60
2023-02-09T13:02:56.274Z,36.90
2023-02-09T13:05:33.095Z,39.17
2023-02-09T13:08:15.974Z,32.73
2023-02-09T13:11:03.127Z,40.58
2023-02-09T13:13:33.817Z,36.20
2023-02-09T13:16:00.760Z,34.43
2023-02-09T13:19:00.598Z,40.10
2023-02-09T13:21:57.805Z,38.10
2023-02-09T13:24:47.235Z,37.80
2023-02-09T13:27:24.450Z,35.05
2023-02-09T13:29:56.623Z,36.57
2023-02-09T13:33:08.590Z,33.60
2023-02-09T13:36:16.203Z,37.67
2023-02-09T13:38:50.203Z,34.57
2023-02-09T13:41:40.645Z,34.53
2023-02-09T13:44:25.882Z,34.87
2023-02-09T13:47:01.447Z,32.03
2023-02-09T13:49:30.055Z,38.47
2023-02-09T13:52:20.375Z,35.40
2023-02-09T13:54:47.606Z,32.23
2023-02-09T13:57:35.364Z,33.17
2023-02-09T14:00:29.472Z,30.97
2023-02-09T14:03:12.058Z,33.07
2023-02-09T14:06:02.482Z,30.30
2023-02-09T14:08:31.751Z,30.87
2023-02-09T14:11:12.248Z,30.83
2023-02-09T14:13:53.391Z,30.57
2023-02-09T14:16:23.924Z,35.17
2023-02-09T14:18:59.819Z,35.40
2023-02-09T14:21:42.858Z,32.00
2023-02-09T14:24:16.346Z,31.17
2023-02-09T14:26:52.179Z,30.83
2023-02-09T14:29:27.790Z,28.47
2023-02-09T14:32:01.963Z,24.67
2023-02-09T14:34:39.240Z,23.80
2023-02-09T14:37:11.972Z,23.73
2023-02-09T14:40:16.094Z,25.80
2023-02-09T14:43:07.097Z,27.80
2023-02-09T14:45:49.030Z,26.50
2023-02-09T14:48:23.308Z,29.93
2023-02-09T14:50:55.138Z,27.77
2023-02-09T14:53:24.617Z,28.30
2023-02-09T14:55:54.102Z,30.67
2023-02-09T14:58:26.871Z,26.67
2023-02-09T15:00:57.313Z,29.30
2023-02-09T15:03:24.843Z,25.80
2023-02-09T15:06:01.711Z,26.77
2023-02-09T15:08:35.171Z,23.40
2023-02-09T15:11:26.346Z,25.27
2023-02-09T15:13:59.772Z,28.30
2023-02-09T15:16:26.920Z,27.03
2023-02-09T15:18:54.013Z,27.73
2023-02-09T15:21:21.023Z,28.03
2023-02-09T15:23:48.870Z,29.73
2023-02-09T15:26:18.129Z,34.37
2023-02-09T15:28:45.133Z,25.40
2023-02-09T15:31:16.277Z,31.50
2023-02-09T15:33:43.915Z,29.60
2023-02-09T15:36:18.166Z,28.33
2023-02-09T15:38:45.399Z,27.57
2023-02-09T15:41:31.170Z,30.93
2023-02-09T15:44:23.382Z,33.47
2023-02-09T15:47:08.885Z,29.23
2023-02-09T15:49:35.902Z,37.00
2023-02-09T15:52:03.011Z,31.67
2023-02-09T15:54:33.056Z,33.57
2023-02-09T15:57:01.348Z,35.70
2023-02-09T15:59:28.431Z,34.13
2023-02-09T16:01:57.671Z,32.40
2023-02-09T16:04:25.980Z,32.37
2023-02-09T16:06:54.578Z,34.17
2023-02-09T16:09:29.242Z,33.67
2023-02-09T16:11:56.727Z,34.17
2023-02-09T16:14:26.670Z,31.67
2023-02-09T16:16:53.751Z,32.50
2023-02-09T16:19:21.541Z,32.67
2023-02-09T16:21:56.327Z,34.17
2023-02-09T16:24:32.947Z,36.20
2023-02-09T16:27:02.432Z,34.07
2023-02-09T16:29:29.756Z,37.33
2023-02-09T16:31:56.890Z,33.70
2023-02-09T16:34:23.964Z,34.37
2023-02-09T16:36:51.165Z,38.77
2023-02-09T16:39:21.175Z,36.63
2023-02-09T16:41:50.475Z,40.77
2023-02-09T16:44:30.441Z,42.60
2023-02-09T16:46:59.920Z,40.77
2023-02-09T16:49:40.322Z,34.03
2023-02-09T16:52:25.889Z,45.30
2023-02-09T16:55:04.267Z,41.27
2023-02-09T16:57:31.262Z,42.37
2023-02-09T16:59:58.311Z,43.10
2023-02-09T17:02:42.540Z,40.20
2023-02-09T17:05:37.196Z,34.93
2023-02-09T17:08:24.216Z,38.67
2023-02-09T17:10:54.464Z,39.67
2023-02-09T17:13:22.146Z,41.23
2023-02-09T17:16:02.929Z,37.87
2023-02-09T17:18:42.403Z,41.60
2023-02-09T17:21:23.953Z,41.83
2023-02-09T17:23:52.089Z,40.37
2023-02-09T17:26:19.795Z,39.87
2023-02-09T17:28:47.538Z,38.07
2023-02-09T17:31:27.117Z,44.70
2023-02-09T17:34:00.911Z,49.47
2023-02-09T17:36:30.109Z,41.47
2023-02-09T17:38:59.539Z,47.97
2023-02-09T17:41:43.170Z,41.43
2023-02-09T17:44:35.344Z,38.97
2023-02-09T17:47:03.511Z,41.40
2023-02-09T17:49:30.599Z,40.80
2023-02-09T17:51:57.654Z,44.23
2023-02-09T17:54:24.760Z,40.93
2023-02-09T17:56:51.763Z,55.40
2023-02-09T17:59:20.370Z,40.77
2023-02-09T18:01:55.107Z,44.43
2023-02-09T18:04:27.129Z,42.37
2023-02-09T18:06:56.678Z,39.37
2023-02-09T18:09:24.740Z,41.93
2023-02-09T18:11:52.164Z,45.03
2023-02-09T18:14:21.348Z,41.93
2023-02-09T18:16:49.035Z,45.17
2023-02-09T18:19:16.989Z,42.47
2023-02-09T18:22:01.765Z,43.63
2023-02-09T18:24:32.971Z,42.93
2023-02-09T18:27:00.343Z,44.50
2023-02-09T18:29:29.639Z,37.77
2023-02-09T18:31:59.258Z,45.40
2023-02-09T18:34:26.673Z,41.63
2023-02-09T18:36:53.759Z,45.87
2023-02-09T18:39:20.984Z,44.47
2023-02-09T18:41:54.150Z,43.97
2023-02-09T18:44:29.160Z,45.83
2023-02-09T18:47:00.594Z,45.83
2023-02-09T18:49:28.495Z,42.40
2023-02-09T18:51:57.038Z,45.13
2023-02-09T18:54:24.026Z,46.07
2023-02-09T18:56:52.829Z,42.83
2023-02-09T18:59:20.074Z,49.63
2023-02-09T19:01:47.148Z,41.07
2023-02-09T19:04:14.302Z,44.67
2023-02-09T19:06:41.298Z,40.23
2023-02-09T19:09:08.303Z,44.90
2023-02-09T19:11:35.392Z,38.10
2023-02-09T19:14:40.848Z,37.47
2023-02-09T19:17:13.275Z,36.70
2023-02-09T19:19:40.934Z,43.23
2023-02-09T19:22:09.329Z,43.57
2023-02-09T19:24:36.706Z,47.60
2023-02-09T19:27:06.784Z,46.97
2023-02-09T19:29:34.945Z,38.37
2023-02-09T19:44:56.573Z,38.57
2023-02-09T19:47:27.565Z,45.83
2023-02-09T19:49:58.667Z,35.20
2023-02-09T19:52:28.002Z,41.93
2023-02-09T19:54:57.586Z,37.43
2023-02-09T19:57:24.883Z,38.83
2023-02-09T19:59:53.875Z,40.50
2023-02-09T20:02:20.905Z,36.77
2023-02-09T20:04:47.958Z,36.77
2023-02-09T20:07:15.259Z,36.40
2023-02-09T20:09:42.665Z,37.27
2023-02-09T20:12:09.707Z,34.97
2023-02-09T20:14:36.840Z,40.87
2023-02-09T20:17:03.836Z,33.43
2023-02-09T20:19:31.177Z,39.63
2023-02-09T20:21:58.173Z,37.47
2023-02-09T20:24:25.244Z,37.67
2023-02-09T20:26:52.265Z,40.57
2023-02-09T20:29:19.549Z,39.80
2023-02-09T20:31:46.816Z,36.87
2023-02-09T20:34:15.405Z,38.00
2023-02-09T20:36:45.623Z,39.50
2023-02-09T20:39:16.228Z,32.87
2023-02-09T20:42:05.738Z,41.37
2023-02-09T20:44:52.982Z,35.90
2023-02-09T20:47:20.137Z,34.37
2023-02-09T20:49:47.267Z,40.47
2023-02-09T20:52:14.404Z,41.90
2023-02-09T20:54:41.515Z,38.77
2023-02-09T20:57:08.965Z,45.33
2023-02-09T20:59:36.057Z,36.77
2023-02-09T21:02:03.192Z,39.40
2023-02-09T21:04:30.354Z,39.90
2023-02-09T21:06:58.820Z,35.17
2023-02-09T21:09:29.328Z,39.00
2023-02-09T21:11:57.173Z,39.00
2023-02-09T21:14:41.094Z,39.93
2023-02-09T21:17:09.595Z,43.60
2023-02-09T21:19:37.016Z,35.93
2023-02-09T21:22:04.172Z,32.57
2023-02-09T21:24:31.158Z,38.40
2023-02-09T21:27:00.744Z,36.20
2023-02-09T21:29:29.286Z,37.90
2023-02-09T21:32:00.100Z,39.10
2023-02-09T21:34:27.282Z,44.17
2023-02-09T21:36:54.351Z,50.90
2023-02-09T21:39:21.549Z,40.30
2023-02-09T21:42:07.230Z,42.17
2023-02-09T21:44:37.347Z,39.83
2023-02-09T21:47:04.778Z,43.33
2023-02-09T21:49:32.444Z,38.87
2023-02-09T21:51:59.613Z,39.63
2023-02-09T21:54:32.853Z,35.50
2023-02-09T21:57:03.791Z,42.03
2023-02-09T21:59:30.829Z,43.97
2023-02-09T22:01:57.924Z,43.50
2023-02-09T22:04:25.850Z,47.00
2023-02-09T22:06:53.123Z,46.37
2023-02-09T22:09:20.616Z,45.33
2023-02-09T22:11:47.723Z,46.33
2023-02-09T22:14:14.782Z,41.53
2023-02-09T22:16:42.595Z,41.43
2023-02-09T22:19:09.720Z,43.73
2023-02-09T22:21:36.741Z,41.10
2023-02-09T22:24:04.045Z,42.33
2023-02-09T22:26:31.110Z,39.03
2023-02-09T22:28:58.255Z,41.30
2023-02-09T22:31:25.287Z,40.20
2023-02-09T22:33:58.465Z,43.90
2023-02-09T22:36:25.521Z,37.53
2023-02-09T22:38:52.574Z,36.17
2023-02-09T22:41:23.075Z,37.47
2023-02-09T22:43:56.081Z,43.97
2023-02-09T22:46:32.770Z,40.03
2023-02-09T22:49:05.720Z,40.50
2023-02-09T22:51:34.364Z,42.20
2023-02-09T22:54:05.236Z,42.70
2023-02-09T22:56:33.077Z,35.30
2023-02-09T22:59:01.815Z,39.43
2023-02-09T23:01:29.590Z,40.57
2023-02-09T23:03:57.255Z,36.93
2023-02-09T23:06:27.431Z,38.30
2023-02-09T23:09:07.562Z,38.53
2023-02-09T23:11:35.748Z,39.63
2023-02-09T23:14:09.669Z,34.27
2023-02-09T23:16:38.579Z,37.23
2023-02-09T23:19:08.628Z,36.00
2023-02-09T23:21:39.452Z,35.57
2023-02-09T23:24:07.259Z,45.73
2023-02-09T23:26:34.699Z,33.97
2023-02-09T23:29:06.045Z,35.37
2023-02-09T23:31:33.633Z,33.67
2023-02-09T23:34:00.705Z,32.73
2023-02-09T23:36:31.108Z,32.53
2023-02-09T23:39:01.839Z,38.50
2023-02-09T23:41:29.705Z,34.47
2023-02-09T23:43:57.835Z,37.17
2023-02-09T23:46:28.730Z,34.40
2023-02-09T23:48:56.657Z,28.37
2023-02-09T23:51:35.586Z,37.53
2023-02-09T23:54:05.680Z,32.63
2023-02-09T23:56:37.191Z,35.97
2023-02-09T23:59:08.128Z,37.40
